createdAt,value
2018-05-09T00:01:43.580Z,4.67
2018-05-09T00:04:10.472Z,8.07
2018-05-09T00:06:37.372Z,4.37
2018-05-09T00:09:04.377Z,5.80
2018-05-09T00:11:31.283Z,4.20
2018-05-09T00:13:58.155Z,4.80
2018-05-09T00:16:25.961Z,5.47
2018-05-09T00:18:52.835Z,4.00
2018-05-09T00:21:19.776Z,8.73
2018-05-09T00:23:47.484Z,6.03
2018-05-09T00:26:14.632Z,5.67
2018-05-09T00:28:42.248Z,4.03
2018-05-09T00:31:09.185Z,4.30
2018-05-09T00:33:36.068Z,4.37
2018-05-09T00:36:03.707Z,8.10
2018-05-09T00:38:30.738Z,8.13
2018-05-09T00:40:58.392Z,8.30
2018-05-09T00:43:25.294Z,4.97
2018-05-09T00:45:53.164Z,5.47
2018-05-09T00:48:20.805Z,7.70
2018-05-09T00:50:47.675Z,4.57
2018-05-09T00:53:15.355Z,5.23
2018-05-09T00:55:42.245Z,5.17
2018-05-09T00:58:09.127Z,6.83
2018-05-09T01:00:36.831Z,7.80
2018-05-09T01:03:03.750Z,6.37
2018-05-09T01:05:30.766Z,5.33
2018-05-09T01:07:57.712Z,5.20
2018-05-09T01:10:24.592Z,6.97
2018-05-09T01:12:51.484Z,5.67
2018-05-09T01:15:19.207Z,7.47
2018-05-09T01:17:46.088Z,4.13
2018-05-09T01:20:13.005Z,3.70
2018-05-09T01:22:39.953Z,5.13
2018-05-09T01:25:06.840Z,5.30
2018-05-09T01:27:33.736Z,4.33
2018-05-09T01:30:00.694Z,5.37
2018-05-09T01:32:27.592Z,4.97
2018-05-09T01:34:55.216Z,5.80
2018-05-09T01:37:22.145Z,4.30
2018-05-09T01:39:49.029Z,4.83
2018-05-09T01:42:15.907Z,6.23
2018-05-09T01:44:42.867Z,5.33
2018-05-09T01:47:09.744Z,6.90
2018-05-09T01:49:36.635Z,4.83
2018-05-09T01:52:04.364Z,5.03
2018-05-09T01:54:31.245Z,7.90
2018-05-09T01:56:58.872Z,4.37
2018-05-09T01:59:25.815Z,4.93
2018-05-09T02:01:52.704Z,3.70
2018-05-09T02:04:20.334Z,4.77
2018-05-09T02:06:47.411Z,5.00
2018-05-09T02:09:15.050Z,4.47
2018-05-09T02:11:41.925Z,4.57
2018-05-09T02:14:09.641Z,4.07
2018-05-09T02:16:36.528Z,4.23
2018-05-09T02:19:04.260Z,5.53
2018-05-09T02:21:31.191Z,3.80
2018-05-09T02:23:58.174Z,5.83
2018-05-09T02:26:25.040Z,3.53
2018-05-09T02:28:52.812Z,7.57
2018-05-09T02:31:19.708Z,4.20
2018-05-09T02:33:46.585Z,4.53
2018-05-09T02:36:13.644Z,5.27
2018-05-09T02:38:41.265Z,4.03
2018-05-09T02:41:08.156Z,6.73
2018-05-09T02:43:35.313Z,4.00
2018-05-09T02:46:02.236Z,4.03
2018-05-09T02:48:29.866Z,4.80
2018-05-09T02:50:56.798Z,4.47
2018-05-09T02:53:23.688Z,4.37
2018-05-09T02:55:51.308Z,4.00
2018-05-09T02:58:18.230Z,5.83
2018-05-09T03:00:45.128Z,4.40
2018-05-09T03:03:12.032Z,5.43
2018-05-09T03:05:39.053Z,4.77
2018-05-09T03:08:05.960Z,5.47
2018-05-09T03:10:32.844Z,4.93
2018-05-09T03:12:59.762Z,4.63
2018-05-09T03:15:26.646Z,4.30
2018-05-09T03:17:53.537Z,5.03
2018-05-09T03:20:20.942Z,6.03
2018-05-09T03:22:48.553Z,6.73
2018-05-09T03:25:15.439Z,5.77
2018-05-09T03:27:42.595Z,8.07
2018-05-09T03:30:09.489Z,6.17
2018-05-09T03:32:36.380Z,6.50
2018-05-09T03:35:04.103Z,6.13
2018-05-09T03:37:30.998Z,5.47
2018-05-09T03:39:57.889Z,5.77
2018-05-09T03:42:25.593Z,7.20
2018-05-09T03:44:53.224Z,4.70
2018-05-09T03:47:20.091Z,7.90
2018-05-09T03:49:47.762Z,10.40
2018-05-09T03:52:15.383Z,7.50
2018-05-09T03:54:42.303Z,6.27
2018-05-09T03:57:09.235Z,6.87
2018-05-09T03:59:36.116Z,5.13
2018-05-09T04:02:21.339Z,6.03
2018-05-09T04:05:07.231Z,6.27
2018-05-09T04:10:39.639Z,4.67
2018-05-09T04:13:06.603Z,5.47
2018-05-09T04:15:33.465Z,8.97
2018-05-09T04:18:00.340Z,7.40
2018-05-09T04:20:27.348Z,9.13
2018-05-09T04:22:54.229Z,5.80
2018-05-09T04:25:21.108Z,6.40
2018-05-09T04:27:48.055Z,4.77
2018-05-09T04:30:14.939Z,8.23
2018-05-09T04:32:41.828Z,7.97
2018-05-09T04:35:09.509Z,8.07
2018-05-09T04:37:36.403Z,6.67
2018-05-09T04:40:03.326Z,7.97
2018-05-09T04:42:30.304Z,7.37
2018-05-09T04:44:57.225Z,7.03
2018-05-09T04:47:24.111Z,5.77
2018-05-09T04:49:52.809Z,7.70
2018-05-09T04:52:19.726Z,8.30
2018-05-09T04:54:46.621Z,6.50
2018-05-09T04:57:13.564Z,6.50
2018-05-09T04:59:40.441Z,8.13
2018-05-09T05:02:07.412Z,6.77
2018-05-09T05:04:34.359Z,5.63
2018-05-09T05:07:01.316Z,7.07
2018-05-09T05:09:28.167Z,7.63
2018-05-09T05:11:55.845Z,8.67
2018-05-09T05:14:22.757Z,5.90
2018-05-09T05:16:49.700Z,9.27
2018-05-09T05:19:16.655Z,5.70
2018-05-09T05:21:43.532Z,7.50
2018-05-09T05:24:10.460Z,7.03
2018-05-09T05:26:38.127Z,7.10
2018-05-09T05:29:05.800Z,5.10
2018-05-09T05:31:33.423Z,4.97
2018-05-09T05:34:00.361Z,5.23
2018-05-09T05:36:27.239Z,6.33
2018-05-09T05:38:54.160Z,5.03
2018-05-09T05:41:21.153Z,5.60
2018-05-09T05:43:48.131Z,6.03
2018-05-09T05:46:15.005Z,6.67
2018-05-09T05:48:42.091Z,7.50
2018-05-09T05:51:09.708Z,6.73
2018-05-09T05:53:36.601Z,9.10
2018-05-09T05:56:03.584Z,6.87
2018-05-09T05:58:30.430Z,6.90
2018-05-09T06:00:57.320Z,6.07
2018-05-09T06:03:25.117Z,6.53
2018-05-09T06:05:51.991Z,6.67
2018-05-09T06:08:18.876Z,5.90
2018-05-09T06:10:46.561Z,7.80
2018-05-09T06:13:13.452Z,6.20
2018-05-09T06:15:40.338Z,8.07
2018-05-09T06:18:08.015Z,7.93
2018-05-09T06:20:34.939Z,6.70
2018-05-09T06:23:02.580Z,7.87
2018-05-09T06:25:29.523Z,9.50
2018-05-09T06:27:56.453Z,7.33
2018-05-09T06:30:23.346Z,8.77
2018-05-09T06:32:51.080Z,5.63
2018-05-09T06:35:17.973Z,6.23
2018-05-09T06:37:44.927Z,7.30
2018-05-09T06:40:11.821Z,6.97
2018-05-09T06:42:38.788Z,8.77
2018-05-09T06:45:06.410Z,6.60
2018-05-09T06:47:33.526Z,9.13
2018-05-09T06:50:00.431Z,5.87
2018-05-09T06:52:28.083Z,8.57
2018-05-09T06:54:55.017Z,4.97
2018-05-09T06:57:21.908Z,4.70
2018-05-09T06:59:49.573Z,6.83
2018-05-09T07:02:16.486Z,5.27
2018-05-09T07:04:43.372Z,7.07
2018-05-09T07:07:10.299Z,8.70
2018-05-09T07:09:37.975Z,7.87
2018-05-09T07:12:04.888Z,5.23
2018-05-09T07:14:31.830Z,4.90
2018-05-09T07:16:58.919Z,4.63
2018-05-09T07:19:26.550Z,4.17
2018-05-09T07:21:53.444Z,6.17
2018-05-09T07:24:20.473Z,4.60
2018-05-09T07:26:47.397Z,4.53
2018-05-09T07:29:14.279Z,5.93
2018-05-09T07:31:41.200Z,5.47
2018-05-09T07:34:08.083Z,5.40
2018-05-09T07:36:34.967Z,6.17
2018-05-09T07:39:02.109Z,4.80
2018-05-09T07:41:29.003Z,10.00
2018-05-09T07:43:56.000Z,5.90
2018-05-09T07:46:23.191Z,7.40
2018-05-09T07:48:50.881Z,3.00
2018-05-09T07:51:17.813Z,4.87
2018-05-09T07:53:44.743Z,3.23
2018-05-09T07:56:12.352Z,3.13
2018-05-09T07:58:39.271Z,3.77
2018-05-09T08:01:06.204Z,5.17
2018-05-09T08:03:33.833Z,4.53
2018-05-09T08:06:00.743Z,6.97
2018-05-09T08:08:27.744Z,6.70
2018-05-09T08:10:54.616Z,4.27
2018-05-09T08:13:21.492Z,3.87
2018-05-09T08:15:48.412Z,3.90
2018-05-09T08:18:15.300Z,6.83
2018-05-09T08:20:42.204Z,4.60
2018-05-09T08:23:09.122Z,4.13
2018-05-09T08:25:36.746Z,4.37
2018-05-09T08:28:03.689Z,7.50
2018-05-09T08:30:30.648Z,5.77
2018-05-09T08:32:57.535Z,4.33
2018-05-09T08:35:24.425Z,5.27
2018-05-09T08:37:51.352Z,5.23
2018-05-09T08:40:18.245Z,3.10
2018-05-09T08:42:45.115Z,5.00
2018-05-09T08:45:12.820Z,4.83
2018-05-09T08:47:39.723Z,5.97
2018-05-09T08:50:06.617Z,6.30
2018-05-09T08:52:33.649Z,5.10
2018-05-09T08:55:00.539Z,7.23
2018-05-09T08:57:28.164Z,6.83
2018-05-09T08:59:55.083Z,3.37
2018-05-09T09:02:21.948Z,3.17
2018-05-09T09:04:48.828Z,7.37
2018-05-09T09:07:16.011Z,6.00
2018-05-09T09:09:43.631Z,4.83
2018-05-09T09:12:10.529Z,6.00
2018-05-09T09:14:37.459Z,4.17
2018-05-09T09:17:05.158Z,4.13
2018-05-09T09:19:32.036Z,4.80
2018-05-09T09:21:58.980Z,6.27
2018-05-09T09:24:25.875Z,5.53
2018-05-09T09:26:52.796Z,6.27
2018-05-09T09:29:20.664Z,4.93
2018-05-09T09:31:48.323Z,4.10
2018-05-09T09:34:15.960Z,5.37
2018-05-09T09:36:42.878Z,4.90
2018-05-09T09:39:09.746Z,4.67
2018-05-09T09:41:36.679Z,4.73
2018-05-09T09:44:03.607Z,3.90
2018-05-09T09:46:30.499Z,2.63
2018-05-09T09:48:57.372Z,5.27
2018-05-09T09:51:25.243Z,4.43
2018-05-09T09:53:52.877Z,6.27
2018-05-09T09:56:19.760Z,7.30
2018-05-09T09:58:46.878Z,2.63
2018-05-09T10:01:13.764Z,5.33
2018-05-09T10:03:40.648Z,4.27
2018-05-09T10:06:07.610Z,3.73
2018-05-09T10:08:34.523Z,2.50
2018-05-09T10:11:02.165Z,8.30
2018-05-09T10:13:29.295Z,5.90
2018-05-09T10:15:56.986Z,4.93
2018-05-09T10:18:23.845Z,6.27
2018-05-09T10:20:50.778Z,3.97
2018-05-09T10:23:17.690Z,3.30
2018-05-09T10:25:45.320Z,5.37
2018-05-09T10:28:13.342Z,3.70
2018-05-09T10:30:40.212Z,2.90
2018-05-09T10:33:07.113Z,2.87
2018-05-09T10:35:34.792Z,3.43
2018-05-09T10:38:01.680Z,4.70
2018-05-09T10:40:28.668Z,5.50
2018-05-09T10:42:56.427Z,5.20
2018-05-09T10:45:24.056Z,3.07
2018-05-09T10:47:50.944Z,4.40
2018-05-09T10:50:18.720Z,5.53
2018-05-09T10:52:46.336Z,4.77
2018-05-09T10:55:13.227Z,6.20
2018-05-09T10:57:40.348Z,4.63
2018-05-09T11:00:07.228Z,5.63
2018-05-09T11:02:34.136Z,5.37
2018-05-09T11:05:01.167Z,3.90
2018-05-09T11:07:28.043Z,5.50
2018-05-09T11:09:55.661Z,4.67
2018-05-09T11:12:22.588Z,4.10
2018-05-09T11:14:49.467Z,7.73
2018-05-09T11:17:16.356Z,5.83
2018-05-09T11:19:43.293Z,3.47
2018-05-09T11:22:10.917Z,4.53
2018-05-09T11:24:37.857Z,5.47
2018-05-09T11:27:04.784Z,7.33
2018-05-09T11:29:31.677Z,3.03
2018-05-09T11:31:58.569Z,5.20
2018-05-09T11:34:25.503Z,3.23
2018-05-09T11:36:52.375Z,4.80
2018-05-09T11:39:19.265Z,4.50
2018-05-09T11:41:47.015Z,5.57
2018-05-09T11:44:13.908Z,4.40
2018-05-09T11:46:40.796Z,5.53
2018-05-09T11:49:07.734Z,5.37
2018-05-09T11:51:34.660Z,7.00
2018-05-09T11:54:01.553Z,6.27
2018-05-09T11:56:28.730Z,4.47
2018-05-09T11:58:55.611Z,4.60
2018-05-09T12:01:23.248Z,3.20
2018-05-09T12:03:50.381Z,4.43
2018-05-09T12:06:17.257Z,6.53
2018-05-09T12:08:44.151Z,5.67
2018-05-09T12:11:11.488Z,6.50
2018-05-09T12:13:38.377Z,5.13
2018-05-09T12:16:05.317Z,6.53
2018-05-09T12:18:33.041Z,8.03
2018-05-09T12:20:59.957Z,8.23
2018-05-09T12:23:26.834Z,7.60
2018-05-09T12:25:53.758Z,6.33
2018-05-09T12:28:20.645Z,4.87
2018-05-09T12:30:47.542Z,6.17
2018-05-09T12:33:14.560Z,5.13
2018-05-09T12:35:42.177Z,4.87
2018-05-09T12:38:09.092Z,7.37
2018-05-09T12:40:36.033Z,5.40
2018-05-09T12:43:02.981Z,5.70
2018-05-09T12:45:29.884Z,7.53
2018-05-09T12:47:56.875Z,7.17
2018-05-09T12:50:23.765Z,5.63
2018-05-09T12:52:50.654Z,6.07
2018-05-09T12:55:17.585Z,6.67
2018-05-09T12:57:45.207Z,8.93
2018-05-09T13:00:12.096Z,6.33
2018-05-09T13:02:39.251Z,7.77
2018-05-09T13:05:06.136Z,6.37
2018-05-09T13:07:33.079Z,7.20
2018-05-09T13:10:00.008Z,6.03
2018-05-09T13:12:26.900Z,11.33
2018-05-09T13:14:53.776Z,6.33
2018-05-09T13:17:20.699Z,8.80
2018-05-09T13:19:47.628Z,7.43
2018-05-09T13:22:14.508Z,9.63
2018-05-09T13:24:42.376Z,6.50
2018-05-09T13:27:09.343Z,5.53
2018-05-09T13:29:36.278Z,9.53
2018-05-09T13:32:03.225Z,7.03
2018-05-09T13:34:30.342Z,6.67
2018-05-09T13:36:57.269Z,9.83
2018-05-09T13:39:24.204Z,5.73
2018-05-09T13:41:51.873Z,5.03
2018-05-09T13:44:18.760Z,7.27
2018-05-09T13:46:46.537Z,11.07
2018-05-09T13:49:14.165Z,8.60
2018-05-09T13:51:41.107Z,11.10
2018-05-09T13:54:08.788Z,7.93
2018-05-09T13:56:36.407Z,7.80
2018-05-09T13:59:04.035Z,7.97
2018-05-09T14:01:30.978Z,12.73
2018-05-09T14:03:58.616Z,11.20
2018-05-09T14:06:26.253Z,7.67
2018-05-09T14:08:53.183Z,11.67
2018-05-09T14:11:20.069Z,7.87
2018-05-09T14:13:46.962Z,9.73
2018-05-09T14:16:13.910Z,6.60
2018-05-09T14:18:40.792Z,9.33
2018-05-09T14:21:07.675Z,8.43
2018-05-09T14:23:35.355Z,7.53
2018-05-09T14:26:02.264Z,6.17
2018-05-09T14:28:29.942Z,8.17
2018-05-09T14:30:57.619Z,10.70
2018-05-09T14:33:24.549Z,9.07
2018-05-09T14:35:52.173Z,13.07
2018-05-09T14:38:19.112Z,8.93
2018-05-09T14:40:46.057Z,9.20
2018-05-09T14:43:12.915Z,9.63
2018-05-09T14:45:39.835Z,7.27
2018-05-09T14:48:06.847Z,9.20
2018-05-09T14:50:34.467Z,11.90
2018-05-09T14:53:01.404Z,11.00
2018-05-09T14:55:28.285Z,11.03
2018-05-09T14:57:55.162Z,9.30
2018-05-09T15:00:22.355Z,12.67
2018-05-09T15:02:49.914Z,8.00
2018-05-09T15:05:16.806Z,8.30
2018-05-09T15:07:43.760Z,9.07
2018-05-09T15:10:10.655Z,9.23
2018-05-09T15:12:37.545Z,6.80
2018-05-09T15:15:05.404Z,9.80
2018-05-09T15:17:33.137Z,11.10
2018-05-09T15:20:00.040Z,12.93
2018-05-09T15:22:27.097Z,5.77
2018-05-09T15:24:53.980Z,7.73
2018-05-09T15:27:20.868Z,5.73
2018-05-09T15:29:47.838Z,12.37
2018-05-09T15:32:14.727Z,10.67
2018-05-09T15:34:41.603Z,12.70
2018-05-09T15:37:08.560Z,7.97
2018-05-09T15:39:35.433Z,11.10
2018-05-09T15:42:02.335Z,7.33
2018-05-09T15:44:29.261Z,8.93
2018-05-09T15:46:56.888Z,8.80
2018-05-09T15:49:23.778Z,12.67
2018-05-09T15:51:51.656Z,8.53
2018-05-09T15:54:18.547Z,7.07
2018-05-09T15:56:45.441Z,6.87
2018-05-09T15:59:13.108Z,9.33
2018-05-09T16:01:40.029Z,10.63
2018-05-09T16:04:07.656Z,11.80
2018-05-09T16:06:34.608Z,8.83
2018-05-09T16:09:02.310Z,10.20
2018-05-09T16:11:29.972Z,7.17
2018-05-09T16:13:57.647Z,5.50
2018-05-09T16:16:24.564Z,7.30
2018-05-09T16:18:51.519Z,10.40
2018-05-09T16:21:18.473Z,11.27
2018-05-09T16:23:46.112Z,7.17
2018-05-09T16:26:13.008Z,7.20
2018-05-09T16:28:40.148Z,8.97
2018-05-09T16:31:07.056Z,10.57
2018-05-09T16:33:33.942Z,8.33
2018-05-09T16:36:00.892Z,8.77
2018-05-09T16:38:27.792Z,12.40
2018-05-09T16:40:54.675Z,9.87
2018-05-09T16:43:21.589Z,8.73
2018-05-09T16:45:48.482Z,10.53
2018-05-09T16:48:15.356Z,8.20
2018-05-09T16:50:42.301Z,9.40
2018-05-09T16:53:09.238Z,7.63
2018-05-09T16:55:36.112Z,9.07
2018-05-09T16:58:03.048Z,8.70
2018-05-09T17:00:30.004Z,9.67
2018-05-09T17:02:56.929Z,7.67
2018-05-09T17:05:23.905Z,6.03
2018-05-09T17:07:50.864Z,9.43
2018-05-09T17:10:18.489Z,9.03
2018-05-09T17:12:46.270Z,11.30
2018-05-09T17:15:13.167Z,10.17
2018-05-09T17:17:40.051Z,8.00
2018-05-09T17:20:07.066Z,5.20
2018-05-09T17:22:33.987Z,7.50
2018-05-09T17:25:01.634Z,9.80
2018-05-09T17:27:28.771Z,6.57
2018-05-09T17:29:55.721Z,7.97
2018-05-09T17:32:23.372Z,6.27
2018-05-09T17:34:50.345Z,5.20
2018-05-09T17:37:17.993Z,10.00
2018-05-09T17:39:45.657Z,9.27
2018-05-09T17:42:12.596Z,11.10
2018-05-09T17:44:41.489Z,11.50
2018-05-09T17:47:08.402Z,5.93
2018-05-09T17:49:35.349Z,8.83
2018-05-09T17:52:02.221Z,8.85
2018-05-09T17:54:29.115Z,10.67
2018-05-09T17:56:56.049Z,5.93
2018-05-09T17:59:23.731Z,5.77
2018-05-09T18:01:50.631Z,5.73
2018-05-09T18:04:17.576Z,7.47
2018-05-09T18:06:44.460Z,6.30
2018-05-09T18:09:11.382Z,10.80
2018-05-09T18:11:38.405Z,6.97
2018-05-09T18:14:05.287Z,8.13
2018-05-09T18:16:32.217Z,9.13
2018-05-09T18:18:59.946Z,8.03
2018-05-09T18:21:26.912Z,8.93
2018-05-09T18:23:53.894Z,9.80
2018-05-09T18:26:20.836Z,8.10
2018-05-09T18:28:48.488Z,5.30
2018-05-09T18:31:15.361Z,5.43
2018-05-09T18:33:42.859Z,10.83
2018-05-09T18:36:09.738Z,7.40
2018-05-09T18:38:37.363Z,7.43
2018-05-09T18:41:04.424Z,7.87
2018-05-09T18:43:31.292Z,9.77
2018-05-09T18:45:59.002Z,6.77
2018-05-09T18:48:25.941Z,5.93
2018-05-09T18:50:52.832Z,6.67
2018-05-09T18:53:19.742Z,9.47
2018-05-09T18:55:46.675Z,7.47
2018-05-09T18:58:13.641Z,6.07
2018-05-09T19:00:40.558Z,7.97
2018-05-09T19:03:07.520Z,9.93
2018-05-09T19:05:34.420Z,7.73
2018-05-09T19:08:02.061Z,12.43
2018-05-09T19:10:29.000Z,8.73
2018-05-09T19:12:56.637Z,8.97
2018-05-09T19:15:23.654Z,11.90
2018-05-09T19:17:50.886Z,7.30
2018-05-09T19:20:17.784Z,9.77
2018-05-09T19:22:44.680Z,7.60
2018-05-09T19:25:11.619Z,8.20
2018-05-09T19:27:38.547Z,7.63
2018-05-09T19:30:05.435Z,9.33
2018-05-09T19:32:33.111Z,7.40
2018-05-09T19:35:00.754Z,9.80
2018-05-09T19:37:28.215Z,7.53
2018-05-09T19:39:55.487Z,10.23
2018-05-09T19:42:22.388Z,5.57
2018-05-09T19:44:49.264Z,10.17
2018-05-09T19:47:16.950Z,7.73
2018-05-09T19:49:43.836Z,10.23
2018-05-09T19:52:10.738Z,5.23
2018-05-09T19:54:37.714Z,12.33
2018-05-09T19:57:04.600Z,11.23
2018-05-09T19:59:31.483Z,11.97
2018-05-09T20:01:58.420Z,8.53
2018-05-09T20:04:25.293Z,10.17
2018-05-09T20:06:52.272Z,7.10
2018-05-09T20:09:19.556Z,8.50
2018-05-09T20:11:47.183Z,8.00
2018-05-09T20:14:14.072Z,8.60
2018-05-09T20:16:41.014Z,7.63
2018-05-09T20:19:08.676Z,8.60
2018-05-09T20:21:36.299Z,10.90
2018-05-09T20:24:03.486Z,10.07
2018-05-09T20:26:30.382Z,6.37
2018-05-09T20:29:01.205Z,11.53
2018-05-09T20:31:52.780Z,10.93
2018-05-09T20:34:19.687Z,10.10
2018-05-09T20:36:46.583Z,9.30
2018-05-09T20:39:13.664Z,12.90
2018-05-09T20:41:40.553Z,11.47
2018-05-09T20:44:07.441Z,10.50
2018-05-09T20:46:34.376Z,16.20
2018-05-09T20:49:01.266Z,10.43
2018-05-09T20:51:46.468Z,7.13
2018-05-09T20:54:13.335Z,9.93
2018-05-09T20:56:40.219Z,9.50
2018-05-09T20:59:07.223Z,12.17
2018-05-09T21:01:47.259Z,8.67
2018-05-09T21:04:14.292Z,10.57
2018-05-09T21:06:41.280Z,9.70
2018-05-09T21:09:08.205Z,11.47
2018-05-09T21:11:35.887Z,9.97
2018-05-09T21:14:03.550Z,8.43
2018-05-09T21:16:31.250Z,12.80
2018-05-09T21:18:58.210Z,9.70
2018-05-09T21:21:25.091Z,8.73
2018-05-09T21:23:51.972Z,14.40
2018-05-09T21:26:18.936Z,9.60
2018-05-09T21:28:45.807Z,10.67
2018-05-09T21:31:12.689Z,9.90
2018-05-09T21:33:39.636Z,9.20
2018-05-09T21:36:06.576Z,11.27
2018-05-09T21:38:34.189Z,9.80
2018-05-09T21:41:01.123Z,11.20
2018-05-09T21:43:28.006Z,14.47
2018-05-09T21:45:54.885Z,10.20
2018-05-09T21:48:21.800Z,11.40
2018-05-09T21:50:49.445Z,10.10
2018-05-09T21:53:17.104Z,11.00
2018-05-09T21:55:44.040Z,10.43
2018-05-09T21:58:10.933Z,15.37
2018-05-09T22:00:38.575Z,12.07
2018-05-09T22:03:05.576Z,9.43
2018-05-09T22:05:32.460Z,10.07
2018-05-09T22:07:59.359Z,10.33
2018-05-09T22:10:26.291Z,9.97
2018-05-09T22:12:53.903Z,11.97
2018-05-09T22:15:20.779Z,11.13
2018-05-09T22:17:48.456Z,10.70
2018-05-09T22:20:16.079Z,12.60
2018-05-09T22:22:42.964Z,13.00
2018-05-09T22:25:10.711Z,12.37
2018-05-09T22:27:37.600Z,14.77
2018-05-09T22:30:04.542Z,10.23
2018-05-09T22:32:31.573Z,11.07
2018-05-09T22:34:58.460Z,11.37
2018-05-09T22:37:25.392Z,16.07
2018-05-09T22:39:52.321Z,12.87
2018-05-09T22:42:19.216Z,11.40
2018-05-09T22:44:46.098Z,8.77
2018-05-09T22:47:13.028Z,11.43
2018-05-09T22:49:40.644Z,12.57
2018-05-09T22:52:07.528Z,14.33
2018-05-09T22:54:34.440Z,10.73
2018-05-09T22:57:01.328Z,15.63
2018-05-09T22:59:28.960Z,12.87
2018-05-09T23:01:55.900Z,15.23
2018-05-09T23:04:22.822Z,12.93
2018-05-09T23:06:49.702Z,9.40
2018-05-09T23:09:16.638Z,13.00
2018-05-09T23:11:43.520Z,9.97
2018-05-09T23:14:11.157Z,12.67
2018-05-09T23:16:38.241Z,10.93
2018-05-09T23:19:05.873Z,14.53
2018-05-09T23:21:32.764Z,11.10
2018-05-09T23:24:00.007Z,11.20
2018-05-09T23:26:26.944Z,10.10
2018-05-09T23:28:54.564Z,13.70
2018-05-09T23:31:21.496Z,11.73
2018-05-09T23:33:48.380Z,12.03
2018-05-09T23:36:15.263Z,9.30
2018-05-09T23:38:42.193Z,12.53
2018-05-09T23:41:09.867Z,12.40
2018-05-09T23:43:36.753Z,12.83
2018-05-09T23:46:03.703Z,11.70
2018-05-09T23:48:30.609Z,10.50
2018-05-09T23:50:57.564Z,14.63
2018-05-09T23:53:24.688Z,11.47
2018-05-09T23:55:52.390Z,17.13
2018-05-09T23:58:19.241Z,12.10
